Current Conditions

Updated: 20-Oct-2014 5:59am  
Summary / Temperature Wind Rain






Feels like: 55°F

1-hour difference
1.0°F 1.0°F colder than last hour.

24-hour difference
0.8°F0.8°F warmer than yesterday at this time.

  Today Yesterday
High: 60.6°F
12:00am
84.5°F
4:03pm
Low: 54.4°F
5:58am
52.1°F
7:12am
 Calm WNW
0.0
Gust:  0.0 mph
0 Beaufort - Calm

Today: 0.0 - 2:51pm
Month: 9.2 mph - Oct 7
Rain Today: 0.00 in
Current Rate (/hr): 0.00 in
Max Rate (/hr):
Rain Yesterday: 0.00 in
Storm Rain: 0.00 in
This Month: 0.00 in
Season Total: 0.01 in
Last Rain Event: 42 days ago
Humidity / Barometer Sun / Moon
Humidity: 87 Increased 2.0% in the last hour.
Dew Point: 50.7°F Decreased 0.3°F in the last hour.
Barometer: 29.865 inHg  
Baro Trend: Steady
Sunrise: 7:07am
Sunset: 6:15pm
Moonrise: 4:03am
Moonset: 4:28pm
Sky Conditions UV Index
Sky: Clear
Visibility: 10 miles
Clouds: None
Current: 0.0  None 
Monday: 4.7  Moderate 
Tuesday: 4.7  Moderate 
Air Quality Fire Danger
PM 2.5 Good
Ozone Good
Current: 0  Low 

Local Alerts Local Forecast
Local NWS Alerts
Today

Sunny

High 81
Tonight

Clear

Low 52
Tue

Partly
Cloudy
High 74
Tue night

Clear

Low 50
Wed

Sunny

High 78
Wed night

Clear

Low 52
Thu

Mostly
Sunny
High 84

Local Radar Local Satellite Neighborhood Cam Sky Cam
Local Radar Local Satellite Neighborhood Cam Sky Cam


Nearby METAR Reports

KPTV - Porterville, California, USA
Distance from station: SSW 4mi, 7km
Updated: Mon, 20-Oct-2014 5:55am PDT
Clear
Clear
 Wind from SSE
Wind: SSE 3 mph , 6 km/h
Temperature: 54°F , 12°C
Dew Point: 43°F , 6°C
Humidity: 67%
Barometer: 29.91 inHg , 1012.9 hPa
Clouds: Clear
Visibility: 10 miles , 16 km
2014/10/20 12:55 KPTV 201255Z 16003KT 10SM CLR 12/06 A2991 RMK AO1
KVIS - Visalia, California, USA
Distance from station: NW 27mi, 43km
Updated: Mon, 20-Oct-2014 5:55am PDT
Clear
Clear
 Wind from calm
Wind: Calm
Temperature: 55°F , 13°C
Dew Point: 45°F , 7°C
Humidity: 67%
Barometer: 29.90 inHg , 1012.5 hPa
Clouds: Clear
Visibility: 9 miles , 14 km
2014/10/20 12:55 KVIS 201255Z 00000KT 9SM CLR 13/07 A2990 RMK AO1

Metar display script from Saratoga-Weather.org



Visitor Map

Locations of visitors to this page